createdAt,value
2023-03-29T00:00:31.973Z,4.94
2023-03-29T00:01:35.178Z,4.94
2023-03-29T00:02:31.971Z,4.95
2023-03-29T00:03:32.014Z,4.95
2023-03-29T00:04:31.908Z,4.98
2023-03-29T00:05:31.901Z,4.96
2023-03-29T00:06:31.858Z,4.98
2023-03-29T00:07:31.858Z,4.98
2023-03-29T00:08:31.860Z,4.98
2023-03-29T00:09:31.825Z,4.96
2023-03-29T00:10:31.831Z,4.96
2023-03-29T00:11:31.800Z,4.98
2023-03-29T00:12:31.786Z,4.98
2023-03-29T00:13:31.763Z,5.02
2023-03-29T00:14:31.780Z,5.04
2023-03-29T00:15:31.755Z,5.02
2023-03-29T00:16:31.797Z,5.02
2023-03-29T00:17:31.772Z,5.02
2023-03-29T00:18:31.698Z,4.99
2023-03-29T00:19:31.699Z,4.99
2023-03-29T00:20:31.688Z,5.01
2023-03-29T00:21:31.694Z,5.01
2023-03-29T00:22:31.660Z,5.02
2023-03-29T00:23:31.651Z,5.05
2023-03-29T00:24:31.641Z,5.04
2023-03-29T00:25:31.671Z,5.04
2023-03-29T00:26:31.638Z,5.04
2023-03-29T00:27:31.580Z,5.04
2023-03-29T00:28:31.589Z,5.04
2023-03-29T00:29:31.568Z,5.05
2023-03-29T00:30:31.579Z,5.10
2023-03-29T00:31:31.590Z,5.09
2023-03-29T00:32:31.581Z,5.07
2023-03-29T00:33:31.511Z,5.04
2023-03-29T00:34:31.508Z,5.09
2023-03-29T00:35:31.544Z,5.10
2023-03-29T00:36:31.538Z,5.12
2023-03-29T00:37:31.470Z,5.13
2023-03-29T00:38:31.487Z,5.13
2023-03-29T00:39:31.433Z,5.17
2023-03-29T00:40:31.470Z,5.20
2023-03-29T00:41:31.467Z,5.22
2023-03-29T00:42:31.519Z,5.19
2023-03-29T00:43:31.422Z,5.19
2023-03-29T00:44:31.359Z,5.19
2023-03-29T00:45:31.375Z,5.17
2023-03-29T00:46:31.515Z,5.16
2023-03-29T00:47:31.457Z,5.16
2023-03-29T00:48:31.336Z,5.14
2023-03-29T00:49:31.327Z,5.13
2023-03-29T00:50:31.298Z,5.12
2023-03-29T00:51:31.288Z,5.13
2023-03-29T00:52:31.301Z,5.14
2023-03-29T00:53:31.288Z,5.12
2023-03-29T00:54:31.235Z,5.09
2023-03-29T00:55:31.232Z,5.07
2023-03-29T00:56:31.225Z,5.07
2023-03-29T00:57:31.256Z,5.05
2023-03-29T00:58:31.210Z,5.09
2023-03-29T00:59:31.175Z,5.07
2023-03-29T01:00:31.185Z,5.07
2023-03-29T01:01:31.166Z,5.07
2023-03-29T01:02:31.187Z,5.09
2023-03-29T01:03:31.191Z,5.09
2023-03-29T01:04:31.136Z,5.07
2023-03-29T01:05:31.183Z,5.07
2023-03-29T01:06:31.103Z,5.05
2023-03-29T01:07:31.102Z,5.07
2023-03-29T01:08:31.055Z,5.07
2023-03-29T01:09:31.065Z,5.05
2023-03-29T01:10:31.085Z,5.07
2023-03-29T01:11:31.022Z,5.05
2023-03-29T01:12:31.012Z,5.07
2023-03-29T01:13:31.014Z,5.04
2023-03-29T01:14:31.016Z,5.05
2023-03-29T01:15:30.975Z,5.05
2023-03-29T01:16:30.985Z,5.02
2023-03-29T01:17:30.996Z,5.02
2023-03-29T01:18:30.952Z,5.02
2023-03-29T01:19:30.920Z,4.99
2023-03-29T01:20:30.934Z,4.99
2023-03-29T01:21:30.889Z,4.99
2023-03-29T01:22:30.880Z,4.99
2023-03-29T01:23:30.876Z,4.99
2023-03-29T01:24:30.859Z,4.98
2023-03-29T01:25:30.860Z,4.95
2023-03-29T01:26:30.846Z,4.96
2023-03-29T01:27:30.832Z,4.95
2023-03-29T01:28:30.804Z,4.95
2023-03-29T01:29:30.819Z,4.95
2023-03-29T01:30:30.815Z,4.95
2023-03-29T01:31:30.799Z,4.96
2023-03-29T01:32:30.813Z,4.96
2023-03-29T01:33:30.752Z,4.98
2023-03-29T01:34:30.736Z,4.95
2023-03-29T01:35:30.781Z,4.96
2023-03-29T01:36:30.694Z,4.96
2023-03-29T01:37:30.696Z,4.98
2023-03-29T01:38:30.696Z,4.96
2023-03-29T01:39:30.684Z,4.94
2023-03-29T01:40:30.654Z,4.94
2023-03-29T01:41:30.650Z,4.94
2023-03-29T01:42:30.635Z,4.95
2023-03-29T01:43:30.626Z,4.94
2023-03-29T01:44:30.591Z,4.95
2023-03-29T01:45:30.627Z,4.96
2023-03-29T01:46:30.596Z,4.96
2023-03-29T01:47:30.595Z,4.96
2023-03-29T01:48:30.551Z,4.95
2023-03-29T01:49:30.536Z,4.94
2023-03-29T01:50:30.553Z,4.94
2023-03-29T01:51:30.536Z,4.94
2023-03-29T01:52:30.507Z,4.95
2023-03-29T01:53:30.486Z,4.96
2023-03-29T01:54:30.465Z,4.96
2023-03-29T01:55:30.476Z,4.95
2023-03-29T01:56:30.472Z,4.95
2023-03-29T01:57:30.430Z,4.96
2023-03-29T01:58:30.401Z,4.96
2023-03-29T01:59:30.410Z,4.95
2023-03-29T02:00:30.419Z,4.95
2023-03-29T02:01:30.455Z,4.94
2023-03-29T02:02:30.447Z,4.92
2023-03-29T02:03:30.408Z,4.91
2023-03-29T02:04:30.326Z,4.89
2023-03-29T02:05:30.366Z,4.86
2023-03-29T02:06:30.336Z,4.83
2023-03-29T02:07:30.307Z,4.80
2023-03-29T02:08:30.285Z,4.79
2023-03-29T02:09:30.281Z,4.76
2023-03-29T02:10:30.297Z,4.75
2023-03-29T02:11:30.295Z,4.73
2023-03-29T02:12:30.256Z,4.72
2023-03-29T02:13:30.219Z,4.73
2023-03-29T02:14:30.210Z,4.72
2023-03-29T02:15:30.233Z,4.72
2023-03-29T02:16:30.224Z,4.69
2023-03-29T02:17:30.207Z,4.67
2023-03-29T02:18:30.153Z,4.67
2023-03-29T02:19:30.166Z,4.65
2023-03-29T02:20:30.211Z,4.65
2023-03-29T02:21:30.132Z,4.67
2023-03-29T02:22:30.124Z,4.61
2023-03-29T02:23:30.117Z,4.61
2023-03-29T02:24:30.078Z,4.61
2023-03-29T02:25:30.093Z,4.61
2023-03-29T02:26:30.098Z,4.58
2023-03-29T02:27:30.055Z,4.57
2023-03-29T02:28:30.024Z,4.52
2023-03-29T02:29:30.054Z,4.51
2023-03-29T02:30:30.001Z,4.46
2023-03-29T02:31:30.029Z,4.46
2023-03-29T02:32:30.003Z,4.43
2023-03-29T02:33:29.986Z,4.39
2023-03-29T02:34:29.950Z,4.37
2023-03-29T02:35:29.953Z,4.36
2023-03-29T02:36:29.979Z,4.33
2023-03-29T02:37:29.939Z,4.32
2023-03-29T02:38:29.912Z,4.32
2023-03-29T02:39:29.888Z,4.33
2023-03-29T02:40:29.861Z,4.33
2023-03-29T02:41:29.872Z,4.32
2023-03-29T02:42:29.856Z,4.25
2023-03-29T02:43:29.842Z,4.24
2023-03-29T02:44:29.814Z,4.21
2023-03-29T02:45:29.806Z,4.19
2023-03-29T02:46:29.822Z,4.16
2023-03-29T02:47:29.837Z,4.14
2023-03-29T02:48:29.775Z,4.14
2023-03-29T02:49:29.765Z,4.12
2023-03-29T02:50:29.744Z,4.12
2023-03-29T02:51:29.741Z,4.15
2023-03-29T02:52:29.723Z,4.15
2023-03-29T02:53:29.708Z,4.18
2023-03-29T02:54:29.776Z,4.15
2023-03-29T02:55:29.678Z,4.15
2023-03-29T02:56:29.653Z,4.16
2023-03-29T02:57:29.694Z,4.16
2023-03-29T02:58:29.648Z,4.16
2023-03-29T02:59:29.645Z,4.16
2023-03-29T03:00:29.631Z,4.18
2023-03-29T03:01:29.642Z,4.19
2023-03-29T03:02:29.634Z,4.19
2023-03-29T03:03:29.693Z,4.21
2023-03-29T03:04:29.592Z,4.18
2023-03-29T03:05:29.541Z,4.18
2023-03-29T03:06:29.539Z,4.16
2023-03-29T03:07:29.549Z,4.16
2023-03-29T03:08:29.517Z,4.16
2023-03-29T03:09:29.512Z,4.18
2023-03-29T03:10:29.485Z,4.18
2023-03-29T03:11:29.474Z,4.18
2023-03-29T03:12:29.491Z,4.18
2023-03-29T03:13:29.453Z,4.19
2023-03-29T03:14:29.461Z,4.19
2023-03-29T03:15:29.427Z,4.19
2023-03-29T03:16:29.500Z,4.21
2023-03-29T03:17:29.490Z,4.19
2023-03-29T03:18:29.386Z,4.19
2023-03-29T03:19:29.378Z,4.21
2023-03-29T03:20:29.368Z,4.22
2023-03-29T03:21:29.361Z,4.24
2023-03-29T03:22:29.341Z,4.24
2023-03-29T03:23:29.316Z,4.26
2023-03-29T03:24:29.319Z,4.28
2023-03-29T03:25:29.356Z,4.28
2023-03-29T03:26:29.287Z,4.29
2023-03-29T03:27:29.284Z,4.34
2023-03-29T03:28:29.249Z,4.33
2023-03-29T03:29:29.259Z,4.34
2023-03-29T03:30:29.238Z,4.36
2023-03-29T03:31:29.252Z,4.36
2023-03-29T03:32:29.418Z,4.36
2023-03-29T03:33:29.188Z,4.36
2023-03-29T03:34:29.175Z,4.34
2023-03-29T03:35:29.216Z,4.36
2023-03-29T03:36:29.190Z,4.37
2023-03-29T03:37:29.121Z,4.36
2023-03-29T03:38:29.147Z,4.33
2023-03-29T03:39:29.099Z,4.33
2023-03-29T03:40:29.140Z,4.34
2023-03-29T03:41:29.083Z,4.33
2023-03-29T03:42:29.083Z,4.33
2023-03-29T03:43:29.085Z,4.33
2023-03-29T03:44:29.040Z,4.33
2023-03-29T03:45:29.122Z,4.33
2023-03-29T03:46:29.719Z,4.34
2023-03-29T03:47:29.048Z,4.36
2023-03-29T03:48:29.035Z,4.37
2023-03-29T03:49:28.971Z,4.37
2023-03-29T04:03:10.981Z,4.58
2023-03-29T04:04:10.912Z,4.57
2023-03-29T04:05:10.815Z,4.57
2023-03-29T04:06:10.800Z,4.57
2023-03-29T04:07:10.783Z,4.59
2023-03-29T04:08:10.837Z,4.59
2023-03-29T04:09:10.782Z,4.59
2023-03-29T04:10:10.759Z,4.61
2023-03-29T04:11:10.754Z,4.64
2023-03-29T04:12:10.780Z,4.64
2023-03-29T04:13:10.733Z,4.61
2023-03-29T04:14:10.714Z,4.62
2023-03-29T04:15:10.691Z,4.59
2023-03-29T04:16:10.794Z,4.61
2023-03-29T04:17:10.681Z,4.62
2023-03-29T04:18:10.708Z,4.62
2023-03-29T04:19:10.658Z,4.64
2023-03-29T04:20:10.656Z,4.64
2023-03-29T04:21:10.623Z,4.64
2023-03-29T04:22:10.604Z,4.67
2023-03-29T04:23:10.599Z,4.65
2023-03-29T04:24:10.588Z,4.67
2023-03-29T04:25:10.581Z,4.67
2023-03-29T04:26:10.589Z,4.67
2023-03-29T04:27:10.542Z,4.69
2023-03-29T04:28:10.547Z,4.69
2023-03-29T04:29:10.522Z,4.70
2023-03-29T04:30:10.524Z,4.69
2023-03-29T04:31:10.542Z,4.70
2023-03-29T04:32:10.484Z,4.67
2023-03-29T04:33:10.572Z,4.67
2023-03-29T04:34:10.484Z,4.65
2023-03-29T04:35:10.460Z,4.64
2023-03-29T04:36:10.466Z,4.61
2023-03-29T04:37:10.539Z,4.62
2023-03-29T04:38:10.449Z,4.61
2023-03-29T04:39:10.415Z,4.62
2023-03-29T04:40:10.394Z,4.64
2023-03-29T04:41:10.399Z,4.65
2023-03-29T04:42:10.354Z,4.67
2023-03-29T04:43:10.355Z,4.67
2023-03-29T04:44:10.352Z,4.67
2023-03-29T04:45:10.439Z,4.67
2023-03-29T04:46:10.354Z,4.67
2023-03-29T04:47:10.297Z,4.69
2023-03-29T04:48:10.300Z,4.69
2023-03-29T04:49:10.294Z,4.70
2023-03-29T04:50:10.349Z,4.67
2023-03-29T04:51:10.249Z,4.64
2023-03-29T04:52:10.237Z,4.61
2023-03-29T04:53:10.215Z,4.59
2023-03-29T04:54:10.253Z,4.59
2023-03-29T04:55:10.242Z,4.55
2023-03-29T04:56:10.182Z,4.51
2023-03-29T04:57:10.254Z,4.50
2023-03-29T04:58:10.158Z,4.46
2023-03-29T04:59:10.173Z,4.44
2023-03-29T05:00:12.909Z,4.43
2023-03-29T05:01:10.288Z,4.42
2023-03-29T05:02:10.193Z,4.40
2023-03-29T05:03:10.265Z,4.39
2023-03-29T05:04:12.484Z,4.37
2023-03-29T05:05:10.084Z,4.36
2023-03-29T05:06:10.073Z,4.34
2023-03-29T05:07:10.077Z,4.36
2023-03-29T05:08:10.070Z,4.36
2023-03-29T05:09:10.023Z,4.34
2023-03-29T05:10:10.025Z,4.36
2023-03-29T05:11:10.004Z,4.36
2023-03-29T05:12:10.059Z,4.36
2023-03-29T05:13:09.960Z,4.37
2023-03-29T05:14:09.993Z,4.37
2023-03-29T05:15:09.929Z,4.39
2023-03-29T05:16:09.984Z,4.40
2023-03-29T05:17:10.036Z,4.42
2023-03-29T05:18:09.941Z,4.44
2023-03-29T05:19:09.918Z,4.44
2023-03-29T05:20:09.885Z,4.44
2023-03-29T05:21:09.870Z,4.47
2023-03-29T05:22:09.863Z,4.51
2023-03-29T05:23:09.837Z,4.54
2023-03-29T05:24:09.817Z,4.54
2023-03-29T05:25:09.829Z,4.57
2023-03-29T05:26:09.846Z,4.54
2023-03-29T05:27:09.821Z,4.55
2023-03-29T05:28:09.771Z,4.55
2023-03-29T05:29:09.757Z,4.57
2023-03-29T05:30:09.781Z,4.59
2023-03-29T05:31:09.826Z,4.62
2023-03-29T05:32:09.833Z,4.62
2023-03-29T05:33:09.721Z,4.65
2023-03-29T05:34:09.714Z,4.65
2023-03-29T05:35:09.718Z,4.67
2023-03-29T05:36:09.759Z,4.69
2023-03-29T05:37:09.670Z,4.70
2023-03-29T05:38:09.645Z,4.67
2023-03-29T05:39:09.640Z,4.70
2023-03-29T05:40:09.690Z,4.67
2023-03-29T05:41:09.615Z,4.67
2023-03-29T05:42:09.623Z,4.65
2023-03-29T05:43:09.580Z,4.62
2023-03-29T05:44:09.580Z,4.61
2023-03-29T05:45:09.591Z,4.64
2023-03-29T05:46:09.650Z,4.65
2023-03-29T05:47:09.559Z,4.64
2023-03-29T05:48:09.598Z,4.65
2023-03-29T05:49:09.502Z,4.65
2023-03-29T05:50:09.557Z,4.67
2023-03-29T05:51:09.503Z,4.69
2023-03-29T05:52:09.506Z,4.70
2023-03-29T05:53:09.441Z,4.72
2023-03-29T05:54:09.443Z,4.73
2023-03-29T05:55:09.495Z,4.75
2023-03-29T05:56:09.432Z,4.79
2023-03-29T05:57:09.476Z,4.80
2023-03-29T05:58:09.386Z,4.83
2023-03-29T05:59:09.379Z,4.86
2023-03-29T06:00:09.383Z,4.88
2023-03-29T06:01:09.355Z,4.86
2023-03-29T06:02:09.389Z,4.89
2023-03-29T06:03:19.864Z,4.89
2023-03-29T06:04:10.393Z,4.91
2023-03-29T06:05:09.352Z,4.91
2023-03-29T06:06:09.331Z,4.94
2023-03-29T06:07:09.283Z,4.98
2023-03-29T06:08:09.288Z,5.01
2023-03-29T06:09:09.264Z,5.04
2023-03-29T06:10:09.304Z,5.07
2023-03-29T06:11:09.367Z,5.13
2023-03-29T06:12:09.225Z,5.16
2023-03-29T06:13:09.239Z,5.19
2023-03-29T06:14:09.216Z,5.22
2023-03-29T06:15:09.201Z,5.25
2023-03-29T06:16:09.171Z,5.30
2023-03-29T06:17:09.201Z,5.32
2023-03-29T06:18:09.197Z,5.35
2023-03-29T06:19:09.129Z,5.38
2023-03-29T06:20:09.154Z,5.40
2023-03-29T06:21:09.221Z,5.41
2023-03-29T06:22:09.115Z,5.41
2023-03-29T06:23:09.087Z,5.45
2023-03-29T06:24:09.069Z,5.41
2023-03-29T06:25:09.069Z,5.43
2023-03-29T06:26:09.038Z,5.41
2023-03-29T06:27:09.036Z,5.40
2023-03-29T06:28:09.029Z,5.38
2023-03-29T06:29:08.996Z,5.41
2023-03-29T06:30:09.023Z,5.45
2023-03-29T06:31:09.003Z,5.46
2023-03-29T06:32:08.993Z,5.48
2023-03-29T06:33:09.000Z,5.48
2023-03-29T06:34:08.948Z,5.48
2023-03-29T06:35:08.931Z,5.49
2023-03-29T06:36:08.935Z,5.49
2023-03-29T06:37:08.918Z,5.49
2023-03-29T06:38:08.897Z,5.50
2023-03-29T06:39:08.880Z,5.53
2023-03-29T06:40:08.905Z,5.55
2023-03-29T06:41:08.853Z,5.56
2023-03-29T06:42:19.929Z,5.55
2023-03-29T06:43:09.826Z,5.56
2023-03-29T06:44:08.823Z,5.56
2023-03-29T06:45:08.811Z,5.59
2023-03-29T06:46:08.858Z,5.57
2023-03-29T06:47:08.775Z,5.59
2023-03-29T06:48:08.796Z,5.60
2023-03-29T06:49:08.763Z,5.57
2023-03-29T06:50:08.775Z,5.56
2023-03-29T06:51:08.763Z,5.57
2023-03-29T06:52:08.716Z,5.60
2023-03-29T06:53:08.722Z,5.64
2023-03-29T06:54:08.685Z,5.63
2023-03-29T06:55:08.684Z,5.60
2023-03-29T06:56:08.669Z,5.60
2023-03-29T06:57:08.684Z,5.64
2023-03-29T06:58:08.648Z,5.68
2023-03-29T06:59:08.624Z,5.75
2023-03-29T07:00:08.613Z,5.75
2023-03-29T07:01:08.596Z,5.78
2023-03-29T07:02:08.629Z,5.73
2023-03-29T07:03:08.626Z,5.77
2023-03-29T07:04:08.581Z,5.78
2023-03-29T07:05:08.789Z,5.78
2023-03-29T07:06:08.518Z,5.77
2023-03-29T07:07:08.524Z,5.77
2023-03-29T07:08:08.509Z,5.78
2023-03-29T07:09:08.496Z,5.78
2023-03-29T07:10:08.486Z,5.82
2023-03-29T07:11:08.458Z,5.85
2023-03-29T07:12:08.441Z,5.92
2023-03-29T07:13:08.449Z,5.98
2023-03-29T07:14:08.442Z,6.04
2023-03-29T07:15:08.449Z,6.13
2023-03-29T07:16:08.416Z,6.18
2023-03-29T07:17:08.384Z,6.21
2023-03-29T07:18:08.421Z,6.26
2023-03-29T07:19:08.386Z,6.28
2023-03-29T07:20:08.379Z,6.29
2023-03-29T07:21:08.340Z,6.32
2023-03-29T07:22:08.331Z,6.33
2023-03-29T07:23:08.314Z,6.40
2023-03-29T07:24:08.320Z,6.43
2023-03-29T07:25:08.309Z,6.46
2023-03-29T07:26:08.286Z,6.44
2023-03-29T07:27:08.253Z,6.44
2023-03-29T07:28:08.250Z,6.47
2023-03-29T07:29:08.256Z,6.50
2023-03-29T07:30:08.262Z,6.54
2023-03-29T07:31:08.226Z,6.54
2023-03-29T07:32:08.197Z,6.54
2023-03-29T07:33:08.338Z,6.54
2023-03-29T07:34:08.169Z,6.58
2023-03-29T07:35:08.185Z,6.58
2023-03-29T07:36:08.218Z,6.65
2023-03-29T07:37:08.124Z,6.71
2023-03-29T07:38:08.119Z,6.77
2023-03-29T07:39:08.115Z,6.86
2023-03-29T07:40:08.123Z,6.94
2023-03-29T07:41:08.217Z,7.02
2023-03-29T07:42:08.060Z,7.02
2023-03-29T07:43:08.062Z,7.05
2023-03-29T07:44:08.041Z,7.13
2023-03-29T07:45:08.116Z,7.17
2023-03-29T07:46:08.085Z,7.20
2023-03-29T07:47:08.020Z,7.26
2023-03-29T07:48:08.059Z,7.32
2023-03-29T07:49:07.992Z,7.37
2023-03-29T07:50:08.000Z,7.42
2023-03-29T07:51:07.961Z,7.49
2023-03-29T07:52:07.943Z,7.56
2023-03-29T07:53:07.927Z,7.60
2023-03-29T07:54:07.923Z,7.58
2023-03-29T07:55:08.028Z,7.60
2023-03-29T07:56:07.905Z,7.62
2023-03-29T07:57:07.928Z,7.62
2023-03-29T07:58:07.880Z,7.67
2023-03-29T07:59:07.869Z,7.72
2023-03-29T08:00:07.874Z,7.79
2023-03-29T08:01:07.907Z,7.90
2023-03-29T08:02:07.810Z,8.03
2023-03-29T08:03:07.980Z,8.12
2023-03-29T08:04:08.045Z,8.25
2023-03-29T08:05:07.878Z,8.33
2023-03-29T08:06:07.785Z,8.33
2023-03-29T08:07:07.761Z,8.39
2023-03-29T08:08:07.742Z,8.50
2023-03-29T08:09:07.720Z,8.55
2023-03-29T08:10:07.756Z,8.57
2023-03-29T08:11:07.724Z,8.44
2023-03-29T08:12:07.687Z,8.45
2023-03-29T08:13:07.685Z,8.48
2023-03-29T08:14:07.654Z,8.50
2023-03-29T08:15:07.763Z,8.50
2023-03-29T08:16:07.657Z,8.42
2023-03-29T08:17:07.713Z,8.44
2023-03-29T08:18:07.806Z,8.51
2023-03-29T08:19:07.605Z,8.63
2023-03-29T08:20:07.582Z,8.73
2023-03-29T08:21:07.594Z,8.84
2023-03-29T08:22:07.559Z,8.86
2023-03-29T08:23:07.559Z,8.81
2023-03-29T08:24:07.541Z,8.84
2023-03-29T08:25:07.536Z,8.88
2023-03-29T08:26:07.507Z,8.94
2023-03-29T08:27:07.512Z,9.01
2023-03-29T08:28:07.490Z,9.05
2023-03-29T08:29:07.477Z,8.90
2023-03-29T08:30:07.512Z,8.86
2023-03-29T08:31:07.527Z,8.88
2023-03-29T08:32:07.437Z,8.94
2023-03-29T08:33:07.434Z,9.04
2023-03-29T08:34:07.398Z,9.12
2023-03-29T08:35:07.393Z,8.99
2023-03-29T08:36:07.434Z,8.94
2023-03-29T08:37:07.363Z,8.96
2023-03-29T08:38:07.364Z,8.99
2023-03-29T08:39:07.344Z,9.04
2023-03-29T08:40:07.334Z,9.20
2023-03-29T08:41:07.329Z,9.38
2023-03-29T08:42:07.292Z,9.61
2023-03-29T08:43:07.283Z,9.64
2023-03-29T08:44:07.270Z,9.52
2023-03-29T08:45:07.259Z,9.46
2023-03-29T08:46:07.291Z,9.50
2023-03-29T08:47:07.277Z,9.60
2023-03-29T08:48:07.281Z,9.66
2023-03-29T08:49:07.212Z,9.83
2023-03-29T08:50:07.180Z,9.93
2023-03-29T08:51:09.298Z,9.96
2023-03-29T08:52:07.153Z,10.00
2023-03-29T08:53:07.161Z,10.10
2023-03-29T08:54:07.126Z,10.25
2023-03-29T08:55:07.120Z,10.28
2023-03-29T08:56:07.120Z,10.36
2023-03-29T08:57:07.173Z,10.33
2023-03-29T08:58:07.076Z,10.32
2023-03-29T08:59:07.077Z,10.39
2023-03-29T09:00:07.066Z,10.39
2023-03-29T09:01:07.056Z,10.43
2023-03-29T09:02:07.060Z,10.58
2023-03-29T09:03:07.097Z,10.71
2023-03-29T09:04:07.033Z,10.80
2023-03-29T09:05:07.026Z,10.78
2023-03-29T09:06:06.989Z,10.68
2023-03-29T09:07:07.014Z,10.62
2023-03-29T09:08:06.964Z,10.66
2023-03-29T09:09:06.944Z,10.46
2023-03-29T09:10:06.981Z,10.25
2023-03-29T09:11:06.947Z,10.25
2023-03-29T09:12:06.929Z,10.25
2023-03-29T09:13:06.945Z,10.33
2023-03-29T09:14:06.894Z,10.33
2023-03-29T09:15:06.870Z,10.32
2023-03-29T09:16:06.887Z,10.28
2023-03-29T09:17:06.855Z,10.30
2023-03-29T09:18:06.857Z,10.36
2023-03-29T09:19:06.851Z,10.44
2023-03-29T09:20:06.809Z,10.46
2023-03-29T09:21:06.812Z,10.55
2023-03-29T09:22:06.786Z,10.63
2023-03-29T09:23:06.803Z,10.74
2023-03-29T09:24:06.763Z,10.81
2023-03-29T09:25:06.741Z,10.94
2023-03-29T09:26:06.727Z,10.94
2023-03-29T09:27:06.716Z,10.92
2023-03-29T09:28:06.694Z,10.76
2023-03-29T09:29:09.438Z,10.86
2023-03-29T09:30:06.677Z,10.99
2023-03-29T09:31:06.723Z,11.09
2023-03-29T09:32:06.665Z,11.20
2023-03-29T09:33:06.675Z,11.11
2023-03-29T09:34:06.645Z,11.24
2023-03-29T09:35:06.614Z,11.39
2023-03-29T09:36:06.627Z,11.64
2023-03-29T09:37:06.612Z,11.93
2023-03-29T09:38:06.568Z,12.21
2023-03-29T09:39:06.563Z,12.49
2023-03-29T09:40:06.552Z,12.79
2023-03-29T09:41:06.534Z,12.87
2023-03-29T09:42:06.533Z,12.99
2023-03-29T09:43:06.499Z,13.17
2023-03-29T09:44:06.674Z,13.33
2023-03-29T09:45:06.490Z,13.52
2023-03-29T09:46:06.499Z,13.63
2023-03-29T09:47:06.470Z,13.62
2023-03-29T10:03:38.069Z,12.30
2023-03-29T10:04:38.186Z,12.21
2023-03-29T10:05:38.043Z,12.20
2023-03-29T10:06:38.031Z,12.20
2023-03-29T10:07:38.028Z,12.21
2023-03-29T10:08:37.998Z,12.20
2023-03-29T10:09:37.993Z,12.13
2023-03-29T10:10:37.979Z,12.09
2023-03-29T10:11:37.981Z,12.11
2023-03-29T10:12:37.962Z,12.11
2023-03-29T10:13:37.940Z,12.11
2023-03-29T10:14:37.932Z,12.06
2023-03-29T10:15:37.952Z,12.11
2023-03-29T10:16:38.227Z,12.19
2023-03-29T10:17:37.959Z,12.27
2023-03-29T10:18:37.865Z,12.21
2023-03-29T10:19:37.865Z,12.31
2023-03-29T10:20:37.848Z,12.39
2023-03-29T10:21:37.831Z,12.51
2023-03-29T10:22:38.065Z,12.48
2023-03-29T10:23:37.833Z,12.48
2023-03-29T10:24:37.787Z,12.45
2023-03-29T10:26:37.762Z,12.66
2023-03-29T10:27:37.761Z,12.71
2023-03-29T10:28:37.760Z,12.67
2023-03-29T10:29:37.756Z,12.71
2023-03-29T10:30:37.733Z,12.81
2023-03-29T10:31:37.731Z,12.82
2023-03-29T10:32:37.857Z,12.95
2023-03-29T10:33:37.714Z,12.85
2023-03-29T10:34:37.680Z,12.88
2023-03-29T10:35:37.663Z,12.67
2023-03-29T10:36:37.642Z,12.71
2023-03-29T10:37:37.652Z,12.79
2023-03-29T10:38:37.629Z,12.82
2023-03-29T10:39:37.604Z,12.87
2023-03-29T10:40:37.578Z,12.87
2023-03-29T10:41:37.592Z,12.84
2023-03-29T10:42:37.594Z,12.75
2023-03-29T10:43:37.562Z,12.74
2023-03-29T10:44:37.530Z,12.77
2023-03-29T10:45:37.567Z,12.77
2023-03-29T10:46:37.558Z,12.71
2023-03-29T10:47:37.527Z,12.70
2023-03-29T10:48:37.485Z,12.70
2023-03-29T10:49:37.464Z,12.69
2023-03-29T10:50:37.456Z,12.77
2023-03-29T10:51:37.474Z,12.79
2023-03-29T10:52:37.441Z,12.79
2023-03-29T10:53:37.426Z,12.79
2023-03-29T10:54:37.408Z,12.85
2023-03-29T10:55:37.396Z,12.75
2023-03-29T10:56:37.371Z,12.59
2023-03-29T10:57:37.686Z,12.60
2023-03-29T10:58:37.357Z,12.67
2023-03-29T10:59:37.344Z,12.78
2023-03-29T11:00:37.321Z,12.87
2023-03-29T11:01:37.371Z,12.93
2023-03-29T11:02:37.373Z,12.99
2023-03-29T11:03:37.370Z,13.04
2023-03-29T11:04:37.286Z,13.03
2023-03-29T11:05:37.277Z,12.89
2023-03-29T11:06:37.361Z,12.88
2023-03-29T11:07:37.239Z,12.92
2023-03-29T11:08:37.222Z,12.97
2023-03-29T11:09:37.199Z,13.00
2023-03-29T11:10:37.187Z,13.02
2023-03-29T11:11:37.206Z,12.96
2023-03-29T11:12:37.164Z,12.88
2023-03-29T11:13:37.157Z,12.88
2023-03-29T11:14:37.145Z,12.92
2023-03-29T11:15:37.139Z,12.88
2023-03-29T11:16:37.128Z,12.92
2023-03-29T11:17:37.150Z,13.02
2023-03-29T11:18:37.110Z,13.11
2023-03-29T11:19:37.065Z,13.18
2023-03-29T11:20:37.070Z,13.27
2023-03-29T11:21:37.064Z,13.38
2023-03-29T11:22:37.161Z,13.43
2023-03-29T11:23:37.305Z,13.38
2023-03-29T11:24:36.992Z,13.46
2023-03-29T11:25:37.027Z,13.47
2023-03-29T11:26:36.985Z,13.59
2023-03-29T11:27:36.977Z,13.52
2023-03-29T11:28:36.975Z,13.44
2023-03-29T11:29:36.940Z,13.44
2023-03-29T11:30:36.928Z,13.47
2023-03-29T11:31:38.846Z,13.43
2023-03-29T11:32:36.934Z,13.55
2023-03-29T11:33:36.912Z,13.70
2023-03-29T11:34:37.172Z,13.74
2023-03-29T11:35:36.899Z,13.80
2023-03-29T11:36:36.855Z,13.76
2023-03-29T11:37:36.854Z,13.70
2023-03-29T11:38:36.817Z,13.77
2023-03-29T11:39:36.816Z,13.80
2023-03-29T11:40:36.790Z,13.83
2023-03-29T11:41:36.813Z,13.91
2023-03-29T11:42:36.799Z,13.95
2023-03-29T11:43:36.776Z,13.98
2023-03-29T11:44:36.745Z,14.10
2023-03-29T11:45:36.741Z,14.09
2023-03-29T11:46:36.769Z,14.21
2023-03-29T11:47:36.779Z,14.32
2023-03-29T11:48:36.712Z,14.38
2023-03-29T11:49:36.672Z,14.31
2023-03-29T11:50:36.930Z,14.19
2023-03-29T11:51:36.644Z,14.10
2023-03-29T11:52:36.647Z,13.92
2023-03-29T11:53:36.649Z,13.83
2023-03-29T11:54:36.614Z,13.70
2023-03-29T11:55:36.620Z,13.80
2023-03-29T11:56:36.592Z,13.92
2023-03-29T11:57:36.584Z,14.07
2023-03-29T11:58:38.851Z,14.17
2023-03-29T11:59:36.545Z,14.21
2023-03-29T12:00:36.545Z,14.09
2023-03-29T12:01:36.558Z,13.99
2023-03-29T12:02:36.640Z,14.12
2023-03-29T12:03:36.615Z,14.35
2023-03-29T12:04:36.488Z,14.60
2023-03-29T12:05:36.464Z,14.71
2023-03-29T12:06:36.472Z,15.05
2023-03-29T12:07:36.441Z,15.11
2023-03-29T12:08:36.428Z,15.03
2023-03-29T12:09:36.436Z,15.39
2023-03-29T12:10:36.393Z,15.68
2023-03-29T12:11:36.449Z,15.92
2023-03-29T12:12:36.363Z,16.06
2023-03-29T12:13:36.381Z,16.16
2023-03-29T12:14:36.358Z,16.22
2023-03-29T12:15:36.335Z,16.06
2023-03-29T12:16:36.352Z,15.94
2023-03-29T12:17:36.359Z,16.55
2023-03-29T12:18:36.333Z,16.77
2023-03-29T12:19:40.285Z,16.96
2023-03-29T12:20:37.266Z,17.20
2023-03-29T12:21:36.258Z,17.35
2023-03-29T12:22:36.253Z,17.32
2023-03-29T12:23:36.256Z,16.90
2023-03-29T12:24:36.246Z,16.52
2023-03-29T12:25:36.211Z,16.41
2023-03-29T12:26:36.185Z,16.34
2023-03-29T12:27:36.186Z,16.26
2023-03-29T12:28:36.190Z,15.99
2023-03-29T12:29:36.158Z,16.00
2023-03-29T12:30:36.133Z,16.06
2023-03-29T12:31:36.189Z,16.03
2023-03-29T12:32:36.125Z,16.12
2023-03-29T12:33:36.110Z,16.20
2023-03-29T12:34:36.138Z,16.49
2023-03-29T12:35:36.117Z,16.85
2023-03-29T12:36:36.056Z,16.62
2023-03-29T12:37:36.076Z,16.31
2023-03-29T12:38:36.042Z,16.56
2023-03-29T12:39:36.034Z,16.55
2023-03-29T12:40:36.007Z,16.35
2023-03-29T12:41:36.006Z,16.09
2023-03-29T12:42:35.968Z,16.55
2023-03-29T12:43:35.977Z,17.73
2023-03-29T12:44:35.980Z,17.76
2023-03-29T12:45:35.951Z,17.28
2023-03-29T12:46:35.994Z,16.71
2023-03-29T12:47:35.944Z,16.45
2023-03-29T12:48:35.903Z,16.00
2023-03-29T12:49:35.887Z,15.86
2023-03-29T12:50:35.902Z,15.86
2023-03-29T12:51:35.954Z,15.85
2023-03-29T12:52:35.849Z,15.84
2023-03-29T12:53:35.892Z,15.84
2023-03-29T12:54:35.835Z,15.70
2023-03-29T12:55:35.834Z,15.49
2023-03-29T12:56:35.804Z,15.56
2023-03-29T12:57:35.798Z,15.57
2023-03-29T12:58:35.802Z,15.60
2023-03-29T12:59:35.773Z,15.70
2023-03-29T13:00:35.826Z,15.93
2023-03-29T13:01:35.807Z,16.15
2023-03-29T13:02:35.907Z,16.41
2023-03-29T13:03:35.725Z,16.65
2023-03-29T13:04:35.713Z,16.73
2023-03-29T13:05:35.745Z,16.71
2023-03-29T13:06:35.692Z,16.15
2023-03-29T13:07:35.655Z,16.04
2023-03-29T13:08:35.740Z,15.86
2023-03-29T13:09:35.706Z,15.82
2023-03-29T13:10:35.694Z,15.94
2023-03-29T13:11:35.620Z,15.93
2023-03-29T13:12:35.634Z,16.09
2023-03-29T13:13:35.601Z,16.07
2023-03-29T13:14:35.550Z,15.72
2023-03-29T13:15:35.702Z,15.92
2023-03-29T13:16:35.529Z,15.67
2023-03-29T13:17:35.637Z,16.11
2023-03-29T13:18:35.527Z,16.30
2023-03-29T13:19:35.497Z,16.49
2023-03-29T13:20:35.489Z,16.63
2023-03-29T13:21:35.478Z,16.50
2023-03-29T13:22:35.556Z,16.11
2023-03-29T13:23:35.457Z,15.72
2023-03-29T13:24:35.430Z,15.75
2023-03-29T13:25:35.435Z,15.79
2023-03-29T13:26:35.418Z,15.76
2023-03-29T13:27:35.404Z,15.63
2023-03-29T13:28:35.370Z,15.68
2023-03-29T13:29:35.363Z,15.72
2023-03-29T13:30:35.371Z,15.76
2023-03-29T13:31:35.382Z,15.99
2023-03-29T13:32:35.374Z,16.11
2023-03-29T13:33:35.349Z,15.99
2023-03-29T13:34:35.313Z,15.82
2023-03-29T13:35:35.344Z,15.30
2023-03-29T13:36:35.279Z,15.26
2023-03-29T13:37:35.255Z,15.33
2023-03-29T13:38:35.256Z,15.41